sensor_id;sensor_type;location;lat;lon;timestamp;pressure;altitude;pressure_sealevel;temperature;humidity
76940;BME280;65885;55.848;35.916;2023-01-19T00:00:05;98585.78;;;4.79;69.80
76940;BME280;65885;55.848;35.916;2023-01-19T00:02:33;98593.75;;;4.73;70.18
76940;BME280;65885;55.848;35.916;2023-01-19T00:05:00;98581.84;;;4.66;70.58
76940;BME280;65885;55.848;35.916;2023-01-19T00:07:30;98579.44;;;4.60;70.68
76940;BME280;65885;55.848;35.916;2023-01-19T00:09:58;98586.56;;;4.55;70.29
76940;BME280;65885;55.848;35.916;2023-01-19T00:12:25;98587.59;;;4.49;71.07
76940;BME280;65885;55.848;35.916;2023-01-19T00:14:53;98580.78;;;4.45;71.27
76940;BME280;65885;55.848;35.916;2023-01-19T00:17:20;98562.81;;;4.39;71.42
76940;BME280;65885;55.848;35.916;2023-01-19T00:19:47;98570.69;;;4.36;71.49
76940;BME280;65885;55.848;35.916;2023-01-19T00:22:15;98564.75;;;4.32;71.75
76940;BME280;65885;55.848;35.916;2023-01-19T00:24:44;98562.22;;;4.29;71.92
76940;BME280;65885;55.848;35.916;2023-01-19T00:27:11;98566.63;;;4.27;72.03
76940;BME280;65885;55.848;35.916;2023-01-19T00:29:38;98565.78;;;4.27;72.27
76940;BME280;65885;55.848;35.916;2023-01-19T00:32:06;98567.56;;;4.25;72.21
76940;BME280;65885;55.848;35.916;2023-01-19T00:34:33;98575.38;;;4.23;72.22
76940;BME280;65885;55.848;35.916;2023-01-19T00:37:04;98565.78;;;4.27;72.39
76940;BME280;65885;55.848;35.916;2023-01-19T00:39:32;98567.28;;;4.34;72.66
76940;BME280;65885;55.848;35.916;2023-01-19T00:42:00;98571.22;;;4.47;72.52
76940;BME280;65885;55.848;35.916;2023-01-19T00:44:45;98562.09;;;4.62;72.42
76940;BME280;65885;55.848;35.916;2023-01-19T00:47:12;98566.88;;;4.74;72.23
76940;BME280;65885;55.848;35.916;2023-01-19T00:49:40;98564.75;;;4.87;71.84
76940;BME280;65885;55.848;35.916;2023-01-19T00:52:08;98566.97;;;4.97;71.10
76940;BME280;65885;55.848;35.916;2023-01-19T00:54:35;98567.63;;;5.04;70.91
76940;BME280;65885;55.848;35.916;2023-01-19T00:57:07;98567.28;;;5.15;70.76
76940;BME280;65885;55.848;35.916;2023-01-19T00:59:34;98575.75;;;5.20;70.46
76940;BME280;65885;55.848;35.916;2023-01-19T01:02:01;98578.28;;;5.23;70.33
76940;BME280;65885;55.848;35.916;2023-01-19T01:04:29;98571.47;;;5.19;69.87
76940;BME280;65885;55.848;35.916;2023-01-19T01:06:56;98580.38;;;5.12;69.86
76940;BME280;65885;55.848;35.916;2023-01-19T01:09:23;98578.94;;;5.03;69.79
76940;BME280;65885;55.848;35.916;2023-01-19T01:11:51;98565.41;;;4.93;69.78
76940;BME280;65885;55.848;35.916;2023-01-19T01:14:20;98555.31;;;4.84;70.14
76940;BME280;65885;55.848;35.916;2023-01-19T01:16:47;98565.97;;;4.75;70.47
76940;BME280;65885;55.848;35.916;2023-01-19T01:19:14;98561.88;;;4.68;70.72
76940;BME280;65885;55.848;35.916;2023-01-19T01:21:42;98569.03;;;4.61;70.88
76940;BME280;65885;55.848;35.916;2023-01-19T01:24:09;98562.34;;;4.54;70.88
76940;BME280;65885;55.848;35.916;2023-01-19T01:26:37;98553.88;;;4.48;70.76
76940;BME280;65885;55.848;35.916;2023-01-19T01:29:05;98569.75;;;4.38;70.75
76940;BME280;65885;55.848;35.916;2023-01-19T01:31:34;98558.78;;;4.29;71.01
76940;BME280;65885;55.848;35.916;2023-01-19T01:34:02;98565.91;;;4.22;70.99
76940;BME280;65885;55.848;35.916;2023-01-19T01:36:29;98566.09;;;4.16;71.06
76940;BME280;65885;55.848;35.916;2023-01-19T01:39:00;98559.41;;;4.09;71.31
76940;BME280;65885;55.848;35.916;2023-01-19T01:41:27;98558.69;;;4.04;71.04
76940;BME280;65885;55.848;35.916;2023-01-19T01:43:56;98551.06;;;3.98;71.31
76940;BME280;65885;55.848;35.916;2023-01-19T01:46:27;98551.16;;;3.95;71.67
76940;BME280;65885;55.848;35.916;2023-01-19T01:49:01;98545.22;;;3.91;71.73
76940;BME280;65885;55.848;35.916;2023-01-19T01:51:33;98548.75;;;3.88;71.74
76940;BME280;65885;55.848;35.916;2023-01-19T01:54:11;98544.50;;;3.86;71.89
76940;BME280;65885;55.848;35.916;2023-01-19T01:56:44;98552.13;;;3.90;72.43
76940;BME280;65885;55.848;35.916;2023-01-19T01:59:14;98537.97;;;4.02;72.45
76940;BME280;65885;55.848;35.916;2023-01-19T02:01:51;98546.19;;;4.16;72.32
76940;BME280;65885;55.848;35.916;2023-01-19T02:04:38;98555.25;;;4.31;72.15
76940;BME280;65885;55.848;35.916;2023-01-19T02:07:06;98540.09;;;4.45;71.82
76940;BME280;65885;55.848;35.916;2023-01-19T02:09:51;98543.94;;;4.60;71.51
76940;BME280;65885;55.848;35.916;2023-01-19T02:12:35;98547.91;;;4.72;71.24
76940;BME280;65885;55.848;35.916;2023-01-19T02:15:20;98544.91;;;4.84;71.06
76940;BME280;65885;55.848;35.916;2023-01-19T02:17:48;98543.72;;;4.94;70.67
76940;BME280;65885;55.848;35.916;2023-01-19T02:20:19;98566.78;;;5.04;70.68
76940;BME280;65885;55.848;35.916;2023-01-19T02:22:50;98562.28;;;5.09;70.60
76940;BME280;65885;55.848;35.916;2023-01-19T02:25:19;98583.94;;;5.09;70.31
76940;BME280;65885;55.848;35.916;2023-01-19T02:27:48;98557.28;;;5.03;69.91
76940;BME280;65885;55.848;35.916;2023-01-19T02:30:16;98592.22;;;4.94;69.80
76940;BME280;65885;55.848;35.916;2023-01-19T02:32:44;98578.69;;;4.84;69.84
76940;BME280;65885;55.848;35.916;2023-01-19T02:35:15;98585.88;;;4.76;70.39
76940;BME280;65885;55.848;35.916;2023-01-19T02:37:43;98604.28;;;4.68;70.71
76940;BME280;65885;55.848;35.916;2023-01-19T02:40:13;98604.50;;;4.62;71.05
76940;BME280;65885;55.848;35.916;2023-01-19T02:42:45;98606.41;;;4.56;70.93
76940;BME280;65885;55.848;35.916;2023-01-19T02:45:18;98613.50;;;4.51;71.14
76940;BME280;65885;55.848;35.916;2023-01-19T02:47:47;98606.72;;;4.45;71.36
76940;BME280;65885;55.848;35.916;2023-01-19T02:50:36;98598.16;;;4.43;71.71
76940;BME280;65885;55.848;35.916;2023-01-19T02:53:16;98594.81;;;4.39;71.67
76940;BME280;65885;55.848;35.916;2023-01-19T02:55:52;98626.03;;;4.36;72.12
76940;BME280;65885;55.848;35.916;2023-01-19T02:58:30;98615.47;;;4.42;72.14
76940;BME280;65885;55.848;35.916;2023-01-19T03:01:01;98606.59;;;4.50;72.25
76940;BME280;65885;55.848;35.916;2023-01-19T03:03:42;98601.00;;;4.63;72.62
76940;BME280;65885;55.848;35.916;2023-01-19T03:06:23;98615.31;;;4.77;72.52
76940;BME280;65885;55.848;35.916;2023-01-19T03:08:54;98622.69;;;4.89;72.39
76940;BME280;65885;55.848;35.916;2023-01-19T03:11:27;98615.34;;;5.01;71.95
76940;BME280;65885;55.848;35.916;2023-01-19T03:14:00;98606.28;;;5.15;71.28
76940;BME280;65885;55.848;35.916;2023-01-19T03:16:36;98614.53;;;5.26;70.79
76940;BME280;65885;55.848;35.916;2023-01-19T03:19:08;98625.66;;;5.31;70.59
76940;BME280;65885;55.848;35.916;2023-01-19T03:21:38;98622.94;;;5.34;70.62
76940;BME280;65885;55.848;35.916;2023-01-19T03:24:10;98619.53;;;5.32;70.04
76940;BME280;65885;55.848;35.916;2023-01-19T03:26:40;98614.53;;;5.26;70.38
76940;BME280;65885;55.848;35.916;2023-01-19T03:29:12;98644.25;;;5.19;70.53
76940;BME280;65885;55.848;35.916;2023-01-19T03:31:43;98649.69;;;5.11;70.70
76940;BME280;65885;55.848;35.916;2023-01-19T03:34:12;98655.06;;;5.05;70.94
76940;BME280;65885;55.848;35.916;2023-01-19T03:36:44;98654.41;;;4.98;70.99
76940;BME280;65885;55.848;35.916;2023-01-19T03:39:16;98654.63;;;4.92;71.19
76940;BME280;65885;55.848;35.916;2023-01-19T03:41:47;98652.16;;;4.88;71.57
76940;BME280;65885;55.848;35.916;2023-01-19T03:44:17;98652.28;;;4.83;71.50
76940;BME280;65885;55.848;35.916;2023-01-19T03:46:45;98649.00;;;4.78;71.48
76940;BME280;65885;55.848;35.916;2023-01-19T03:49:15;98649.91;;;4.77;71.51
76940;BME280;65885;55.848;35.916;2023-01-19T03:54:54;98669.19;;;4.70;72.12
76940;BME280;65885;55.848;35.916;2023-01-19T03:57:22;98662.22;;;4.70;72.46
76940;BME280;65885;55.848;35.916;2023-01-19T03:59:51;98667.19;;;4.78;72.70
76940;BME280;65885;55.848;35.916;2023-01-19T04:02:18;98687.63;;;4.89;72.48
76940;BME280;65885;55.848;35.916;2023-01-19T04:04:46;98703.59;;;5.05;72.51
76940;BME280;65885;55.848;35.916;2023-01-19T04:07:13;98709.22;;;5.19;72.05
76940;BME280;65885;55.848;35.916;2023-01-19T04:09:40;98689.75;;;5.32;71.99
76940;BME280;65885;55.848;35.916;2023-01-19T04:12:08;98694.56;;;5.43;71.42
76940;BME280;65885;55.848;35.916;2023-01-19T04:14:35;98701.22;;;5.51;70.82
76940;BME280;65885;55.848;35.916;2023-01-19T04:17:04;98707.88;;;5.60;70.49
76940;BME280;65885;55.848;35.916;2023-01-19T04:19:31;98703.41;;;5.64;70.46
76940;BME280;65885;55.848;35.916;2023-01-19T04:21:58;98713.13;;;5.58;70.38
76940;BME280;65885;55.848;35.916;2023-01-19T04:24:26;98720.31;;;5.52;70.10
76940;BME280;65885;55.848;35.916;2023-01-19T04:26:54;98722.25;;;5.45;70.38
76940;BME280;65885;55.848;35.916;2023-01-19T04:29:22;98714.63;;;5.39;70.48
76940;BME280;65885;55.848;35.916;2023-01-19T04:31:50;98732.28;;;5.29;70.48
76940;BME280;65885;55.848;35.916;2023-01-19T04:34:19;98737.69;;;5.23;71.07
76940;BME280;65885;55.848;35.916;2023-01-19T04:36:46;98738.72;;;5.18;70.99
76940;BME280;65885;55.848;35.916;2023-01-19T04:39:15;98736.25;;;5.13;71.14
76940;BME280;65885;55.848;35.916;2023-01-19T04:41:43;98734.66;;;5.09;71.24
76940;BME280;65885;55.848;35.916;2023-01-19T04:44:10;98746.97;;;5.03;71.55
76940;BME280;65885;55.848;35.916;2023-01-19T04:46:38;98728.91;;;4.98;71.75
76940;BME280;65885;55.848;35.916;2023-01-19T04:49:05;98742.84;;;4.95;71.82
76940;BME280;65885;55.848;35.916;2023-01-19T04:51:34;98751.56;;;4.94;72.23
76940;BME280;65885;55.848;35.916;2023-01-19T04:54:01;98762.06;;;4.91;71.92
76940;BME280;65885;55.848;35.916;2023-01-19T04:56:29;98762.91;;;4.92;72.30
76940;BME280;65885;55.848;35.916;2023-01-19T04:58:56;98770.25;;;5.06;72.73
76940;BME280;65885;55.848;35.916;2023-01-19T05:01:23;98754.84;;;5.29;72.58
76940;BME280;65885;55.848;35.916;2023-01-19T05:03:51;98760.94;;;5.54;71.89
76940;BME280;65885;55.848;35.916;2023-01-19T05:06:18;98755.72;;;5.81;71.13
76940;BME280;65885;55.848;35.916;2023-01-19T05:08:47;98755.81;;;6.06;70.42
76940;BME280;65885;55.848;35.916;2023-01-19T05:11:14;98762.91;;;6.26;70.10
76940;BME280;65885;55.848;35.916;2023-01-19T05:13:42;98757.28;;;6.38;69.15
76940;BME280;65885;55.848;35.916;2023-01-19T05:16:10;98771.00;;;6.43;68.92
76940;BME280;65885;55.848;35.916;2023-01-19T05:18:38;98767.56;;;6.41;68.48
76940;BME280;65885;55.848;35.916;2023-01-19T05:21:06;98779.22;;;6.31;68.74
76940;BME280;65885;55.848;35.916;2023-01-19T05:23:33;98792.78;;;6.16;67.95
76940;BME280;65885;55.848;35.916;2023-01-19T05:26:02;98797.53;;;6.03;68.73
76940;BME280;65885;55.848;35.916;2023-01-19T05:28:31;98796.25;;;5.88;69.06
76940;BME280;65885;55.848;35.916;2023-01-19T05:30:59;98814.88;;;5.76;69.44
76940;BME280;65885;55.848;35.916;2023-01-19T05:33:26;98816.97;;;5.65;69.87
76940;BME280;65885;55.848;35.916;2023-01-19T05:35:54;98808.66;;;5.53;70.10
76940;BME280;65885;55.848;35.916;2023-01-19T05:38:23;98807.22;;;5.43;70.42
76940;BME280;65885;55.848;35.916;2023-01-19T05:40:56;98804.06;;;5.34;70.85
76940;BME280;65885;55.848;35.916;2023-01-19T05:43:25;98818.94;;;5.28;70.77
76940;BME280;65885;55.848;35.916;2023-01-19T05:45:52;98835.56;;;5.24;71.23
76940;BME280;65885;55.848;35.916;2023-01-19T05:48:20;98833.06;;;5.20;71.71
76940;BME280;65885;55.848;35.916;2023-01-19T05:50:47;98825.38;;;5.17;71.74
76940;BME280;65885;55.848;35.916;2023-01-19T05:53:14;98831.56;;;5.13;71.67
76940;BME280;65885;55.848;35.916;2023-01-19T05:55:42;98846.34;;;5.11;71.50
76940;BME280;65885;55.848;35.916;2023-01-19T05:58:09;98855.94;;;5.09;71.80
76940;BME280;65885;55.848;35.916;2023-01-19T06:00:38;98851.25;;;5.21;72.41
76940;BME280;65885;55.848;35.916;2023-01-19T06:03:05;98839.34;;;5.42;72.11
76940;BME280;65885;55.848;35.916;2023-01-19T06:05:33;98846.31;;;5.70;71.85
76940;BME280;65885;55.848;35.916;2023-01-19T06:08:03;98852.56;;;5.92;71.22
76940;BME280;65885;55.848;35.916;2023-01-19T06:10:30;98858.75;;;6.15;70.66
76940;BME280;65885;55.848;35.916;2023-01-19T06:12:58;98858.91;;;6.36;69.81
76940;BME280;65885;55.848;35.916;2023-01-19T06:15:25;98853.97;;;6.54;69.05
76940;BME280;65885;55.848;35.916;2023-01-19T06:17:54;98843.84;;;6.70;68.79
76940;BME280;65885;55.848;35.916;2023-01-19T06:20:22;98865.28;;;6.78;68.01
76940;BME280;65885;55.848;35.916;2023-01-19T06:22:49;98877.72;;;6.70;67.89
76940;BME280;65885;55.848;35.916;2023-01-19T06:25:16;98868.41;;;6.62;68.10
76940;BME280;65885;55.848;35.916;2023-01-19T06:27:44;98868.94;;;6.47;67.77
76940;BME280;65885;55.848;35.916;2023-01-19T06:30:12;98867.75;;;6.31;68.72
76940;BME280;65885;55.848;35.916;2023-01-19T06:32:39;98871.00;;;6.13;68.78
76940;BME280;65885;55.848;35.916;2023-01-19T06:35:09;98883.66;;;5.95;68.81
76940;BME280;65885;55.848;35.916;2023-01-19T06:37:37;98878.00;;;5.82;69.60
76940;BME280;65885;55.848;35.916;2023-01-19T06:40:05;98881.81;;;5.71;69.96
76940;BME280;65885;55.848;35.916;2023-01-19T06:42:33;98877.75;;;5.62;70.27
76940;BME280;65885;55.848;35.916;2023-01-19T06:45:03;98878.88;;;5.53;70.43
76940;BME280;65885;55.848;35.916;2023-01-19T06:47:30;98883.47;;;5.45;70.38
76940;BME280;65885;55.848;35.916;2023-01-19T06:49:59;98881.84;;;5.41;71.01
76940;BME280;65885;55.848;35.916;2023-01-19T06:52:29;98895.84;;;5.37;71.31
76940;BME280;65885;55.848;35.916;2023-01-19T06:54:56;98908.06;;;5.34;71.98
76940;BME280;65885;55.848;35.916;2023-01-19T06:57:31;98911.66;;;5.29;71.58
76940;BME280;65885;55.848;35.916;2023-01-19T06:59:58;98913.50;;;5.26;72.08
76940;BME280;65885;55.848;35.916;2023-01-19T07:02:26;98900.66;;;5.21;72.07
76940;BME280;65885;55.848;35.916;2023-01-19T07:04:55;98907.66;;;5.18;71.96
76940;BME280;65885;55.848;35.916;2023-01-19T07:07:22;98913.75;;;5.17;72.47
76940;BME280;65885;55.848;35.916;2023-01-19T07:09:52;98928.34;;;5.21;72.74
76940;BME280;65885;55.848;35.916;2023-01-19T07:12:20;98934.00;;;5.35;72.78
76940;BME280;65885;55.848;35.916;2023-01-19T07:14:47;98934.19;;;5.60;73.12
76940;BME280;65885;55.848;35.916;2023-01-19T07:17:15;98929.03;;;5.87;72.53
76940;BME280;65885;55.848;35.916;2023-01-19T07:19:42;98950.63;;;6.18;71.60
76940;BME280;65885;55.848;35.916;2023-01-19T07:22:10;98945.31;;;6.48;71.00
76940;BME280;65885;55.848;35.916;2023-01-19T07:24:37;98938.34;;;6.75;69.99
76940;BME280;65885;55.848;35.916;2023-01-19T07:27:07;98914.94;;;6.98;70.33
76940;BME280;65885;55.848;35.916;2023-01-19T07:29:36;98920.19;;;7.21;69.31
76940;BME280;65885;55.848;35.916;2023-01-19T07:32:04;98951.78;;;7.37;68.65
76940;BME280;65885;55.848;35.916;2023-01-19T07:34:32;98957.78;;;7.39;67.78
76940;BME280;65885;55.848;35.916;2023-01-19T07:37:00;98951.94;;;7.33;67.65
76940;BME280;65885;55.848;35.916;2023-01-19T07:39:28;98957.69;;;7.17;67.79
76940;BME280;65885;55.848;35.916;2023-01-19T07:41:56;98973.78;;;7.05;67.83
76940;BME280;65885;55.848;35.916;2023-01-19T07:44:26;98978.75;;;6.88;68.53
76940;BME280;65885;55.848;35.916;2023-01-19T07:46:53;98983.66;;;6.71;68.46
76940;BME280;65885;55.848;35.916;2023-01-19T07:49:21;98999.78;;;6.55;68.83
76940;BME280;65885;55.848;35.916;2023-01-19T07:51:48;98995.00;;;6.42;69.67
76940;BME280;65885;55.848;35.916;2023-01-19T07:54:15;99000.56;;;6.31;70.00
76940;BME280;65885;55.848;35.916;2023-01-19T07:56:43;98995.72;;;6.19;70.00
76940;BME280;65885;55.848;35.916;2023-01-19T07:59:11;99009.84;;;6.11;70.24
76940;BME280;65885;55.848;35.916;2023-01-19T08:01:40;99022.22;;;6.03;70.53
76940;BME280;65885;55.848;35.916;2023-01-19T08:04:08;99032.84;;;5.97;70.79
76940;BME280;65885;55.848;35.916;2023-01-19T08:06:37;99026.09;;;5.90;71.28
76940;BME280;65885;55.848;35.916;2023-01-19T08:09:05;99027.09;;;5.84;71.71
76940;BME280;65885;55.848;35.916;2023-01-19T08:11:33;99028.97;;;5.79;71.35
76940;BME280;65885;55.848;35.916;2023-01-19T08:14:01;99022.19;;;5.75;71.61
76940;BME280;65885;55.848;35.916;2023-01-19T08:16:29;99016.13;;;5.75;71.65
76940;BME280;65885;55.848;35.916;2023-01-19T08:18:58;98996.16;;;5.75;72.08
76940;BME280;65885;55.848;35.916;2023-01-19T08:21:26;99003.06;;;5.76;71.60
76940;BME280;65885;55.848;35.916;2023-01-19T08:23:55;98994.34;;;5.77;72.35
76940;BME280;65885;55.848;35.916;2023-01-19T08:26:27;98987.28;;;5.82;71.61
76940;BME280;65885;55.848;35.916;2023-01-19T08:28:55;99009.75;;;5.85;71.87
76940;BME280;65885;55.848;35.916;2023-01-19T08:31:22;99017.44;;;5.90;72.11
76940;BME280;65885;55.848;35.916;2023-01-19T08:33:50;99023.84;;;6.07;71.98
76940;BME280;65885;55.848;35.916;2023-01-19T08:36:19;99023.88;;;6.35;72.41
76940;BME280;65885;55.848;35.916;2023-01-19T08:38:47;99024.69;;;6.64;71.74
76940;BME280;65885;55.848;35.916;2023-01-19T08:41:14;99027.25;;;6.92;70.66
76940;BME280;65885;55.848;35.916;2023-01-19T08:43:42;99010.75;;;7.16;69.83
76940;BME280;65885;55.848;35.916;2023-01-19T08:46:10;99015.94;;;7.43;68.94
76940;BME280;65885;55.848;35.916;2023-01-19T08:49:00;99008.13;;;7.66;68.48
76940;BME280;65885;55.848;35.916;2023-01-19T08:51:30;98992.75;;;7.82;68.03
76940;BME280;65885;55.848;35.916;2023-01-19T08:53:57;98991.38;;;7.95;67.42
76940;BME280;65885;55.848;35.916;2023-01-19T08:56:25;98986.22;;;7.94;66.80
76940;BME280;65885;55.848;35.916;2023-01-19T08:58:52;98989.16;;;7.85;66.89
76940;BME280;65885;55.848;35.916;2023-01-19T09:01:20;98996.63;;;7.72;66.69
76940;BME280;65885;55.848;35.916;2023-01-19T09:03:47;98999.03;;;7.53;67.08
76940;BME280;65885;55.848;35.916;2023-01-19T09:06:16;99005.84;;;7.34;67.67
76940;BME280;65885;55.848;35.916;2023-01-19T09:08:46;99003.00;;;7.15;68.07
76940;BME280;65885;55.848;35.916;2023-01-19T09:11:14;98999.38;;;6.94;68.50
76940;BME280;65885;55.848;35.916;2023-01-19T09:13:42;99007.69;;;6.79;68.03
76940;BME280;65885;55.848;35.916;2023-01-19T09:16:10;99017.78;;;6.63;68.70
76940;BME280;65885;55.848;35.916;2023-01-19T09:18:39;99018.19;;;6.51;68.95
76940;BME280;65885;55.848;35.916;2023-01-19T09:21:07;99028.94;;;6.40;69.23
76940;BME280;65885;55.848;35.916;2023-01-19T09:23:36;99034.47;;;6.29;69.98
76940;BME280;65885;55.848;35.916;2023-01-19T09:26:05;99042.59;;;6.19;69.83
76940;BME280;65885;55.848;35.916;2023-01-19T09:28:33;99063.63;;;6.13;70.68
76940;BME280;65885;55.848;35.916;2023-01-19T09:31:03;99070.72;;;6.07;70.72
76940;BME280;65885;55.848;35.916;2023-01-19T09:33:32;99061.38;;;6.00;70.86
76940;BME280;65885;55.848;35.916;2023-01-19T09:35:59;99059.69;;;5.99;71.37
76940;BME280;65885;55.848;35.916;2023-01-19T09:38:27;99058.44;;;6.13;71.53
76940;BME280;65885;55.848;35.916;2023-01-19T09:40:57;99065.63;;;6.32;71.24
76940;BME280;65885;55.848;35.916;2023-01-19T09:43:39;99052.84;;;6.53;70.48
76940;BME280;65885;55.848;35.916;2023-01-19T09:46:11;99068.78;;;6.70;70.13
76940;BME280;65885;55.848;35.916;2023-01-19T09:48:46;99074.31;;;6.87;69.62
76940;BME280;65885;55.848;35.916;2023-01-19T09:51:17;99076.53;;;7.00;68.85
76940;BME280;65885;55.848;35.916;2023-01-19T09:53:52;99064.13;;;7.06;68.93
76940;BME280;65885;55.848;35.916;2023-01-19T09:56:22;99074.69;;;7.03;68.25
76940;BME280;65885;55.848;35.916;2023-01-19T09:58:51;99072.34;;;6.95;68.58
76940;BME280;65885;55.848;35.916;2023-01-19T10:04:28;99093.19;;;6.67;68.94
76940;BME280;65885;55.848;35.916;2023-01-19T10:07:10;99072.00;;;6.52;68.96
76940;BME280;65885;55.848;35.916;2023-01-19T10:09:49;99075.91;;;6.37;69.50
76940;BME280;65885;55.848;35.916;2023-01-19T10:12:34;99085.84;;;6.24;69.87
76940;BME280;65885;55.848;35.916;2023-01-19T10:15:14;99080.13;;;6.11;70.01
76940;BME280;65885;55.848;35.916;2023-01-19T10:17:52;99087.34;;;6.02;70.55
76940;BME280;65885;55.848;35.916;2023-01-19T10:20:26;99092.84;;;5.93;70.29
76940;BME280;65885;55.848;35.916;2023-01-19T10:22:56;99086.13;;;5.84;70.50
76940;BME280;65885;55.848;35.916;2023-01-19T10:25:25;99092.38;;;5.77;70.67
76940;BME280;65885;55.848;35.916;2023-01-19T10:27:53;99086.50;;;5.70;70.99
76940;BME280;65885;55.848;35.916;2023-01-19T10:30:24;99086.59;;;5.66;71.10
76940;BME280;65885;55.848;35.916;2023-01-19T10:32:52;99078.94;;;5.61;71.33
76940;BME280;65885;55.848;35.916;2023-01-19T10:35:22;99081.66;;;5.56;71.76
76940;BME280;65885;55.848;35.916;2023-01-19T10:37:50;99086.06;;;5.54;71.85
76940;BME280;65885;55.848;35.916;2023-01-19T10:40:26;99089.59;;;5.52;71.84
76940;BME280;65885;55.848;35.916;2023-01-19T10:42:56;99087.00;;;5.50;72.04
76940;BME280;65885;55.848;35.916;2023-01-19T10:45:27;99096.56;;;5.50;72.17
76940;BME280;65885;55.848;35.916;2023-01-19T10:47:59;99106.91;;;5.51;72.23
76940;BME280;65885;55.848;35.916;2023-01-19T10:50:32;99102.59;;;5.52;72.83
76940;BME280;65885;55.848;35.916;2023-01-19T10:53:03;99100.81;;;5.54;72.66
76940;BME280;65885;55.848;35.916;2023-01-19T10:55:33;99100.44;;;5.68;72.87
76940;BME280;65885;55.848;35.916;2023-01-19T10:58:03;99109.44;;;5.87;73.01
76940;BME280;65885;55.848;35.916;2023-01-19T11:00:34;99117.47;;;6.10;72.67
76940;BME280;65885;55.848;35.916;2023-01-19T11:03:03;99105.41;;;6.37;72.44
76940;BME280;65885;55.848;35.916;2023-01-19T11:05:31;99118.59;;;6.61;71.42
76940;BME280;65885;55.848;35.916;2023-01-19T11:07:59;99120.59;;;6.81;70.62
76940;BME280;65885;55.848;35.916;2023-01-19T11:10:28;99106.22;;;6.95;70.39
76940;BME280;65885;55.848;35.916;2023-01-19T11:12:59;99109.31;;;7.07;69.35
76940;BME280;65885;55.848;35.916;2023-01-19T11:15:33;99115.31;;;7.09;68.98
76940;BME280;65885;55.848;35.916;2023-01-19T11:18:03;99104.22;;;7.04;69.56
76940;BME280;65885;55.848;35.916;2023-01-19T11:20:38;99112.28;;;6.96;69.71
76940;BME280;65885;55.848;35.916;2023-01-19T11:23:18;99121.34;;;6.84;69.50
76940;BME280;65885;55.848;35.916;2023-01-19T11:25:50;99130.44;;;6.71;69.42
76940;BME280;65885;55.848;35.916;2023-01-19T11:28:19;99134.31;;;6.58;69.83
76940;BME280;65885;55.848;35.916;2023-01-19T11:30:58;99145.09;;;6.46;70.15
76940;BME280;65885;55.848;35.916;2023-01-19T11:33:32;99139.44;;;6.31;70.30
76940;BME280;65885;55.848;35.916;2023-01-19T11:36:14;99153.69;;;6.20;69.88
76940;BME280;65885;55.848;35.916;2023-01-19T11:38:43;99169.53;;;6.10;70.04
76940;BME280;65885;55.848;35.916;2023-01-19T11:41:17;99164.59;;;6.01;70.35
76940;BME280;65885;55.848;35.916;2023-01-19T11:43:46;99165.72;;;5.93;70.90
76940;BME280;65885;55.848;35.916;2023-01-19T11:46:16;99160.72;;;5.83;71.02
76940;BME280;65885;55.848;35.916;2023-01-19T11:48:48;99154.81;;;5.77;71.36
76940;BME280;65885;55.848;35.916;2023-01-19T11:51:22;99144.56;;;5.71;71.25
76940;BME280;65885;55.848;35.916;2023-01-19T11:53:52;99151.56;;;5.69;71.45
76940;BME280;65885;55.848;35.916;2023-01-19T11:56:22;99130.91;;;5.63;71.67
76940;BME280;65885;55.848;35.916;2023-01-19T11:58:51;99126.69;;;5.58;71.91
76940;BME280;65885;55.848;35.916;2023-01-19T12:01:22;99131.16;;;5.53;72.00
76940;BME280;65885;55.848;35.916;2023-01-19T12:03:56;99144.28;;;5.49;72.13
76940;BME280;65885;55.848;35.916;2023-01-19T12:06:29;99137.47;;;5.43;71.72
76940;BME280;65885;55.848;35.916;2023-01-19T12:09:00;99137.53;;;5.42;72.13
76940;BME280;65885;55.848;35.916;2023-01-19T12:11:31;99146.94;;;5.47;72.43
76940;BME280;65885;55.848;35.916;2023-01-19T12:14:01;99140.53;;;5.61;72.77
76940;BME280;65885;55.848;35.916;2023-01-19T12:16:33;99146.03;;;5.81;72.21
76940;BME280;65885;55.848;35.916;2023-01-19T12:19:06;99155.00;;;6.03;72.13
76940;BME280;65885;55.848;35.916;2023-01-19T12:21:37;99144.78;;;6.27;71.44
76940;BME280;65885;55.848;35.916;2023-01-19T12:24:10;99140.66;;;6.49;70.50
76940;BME280;65885;55.848;35.916;2023-01-19T12:26:45;99132.22;;;6.69;70.38
76940;BME280;65885;55.848;35.916;2023-01-19T12:29:17;99131.75;;;6.84;69.39
76940;BME280;65885;55.848;35.916;2023-01-19T12:32:15;99138.13;;;7.02;68.77
76940;BME280;65885;55.848;35.916;2023-01-19T12:34:43;99142.34;;;7.06;68.67
76940;BME280;65885;55.848;35.916;2023-01-19T12:37:33;99152.03;;;7.03;68.53
76940;BME280;65885;55.848;35.916;2023-01-19T12:40:19;99159.41;;;6.90;67.63
76940;BME280;65885;55.848;35.916;2023-01-19T12:42:56;99161.69;;;6.71;68.47
76940;BME280;65885;55.848;35.916;2023-01-19T12:45:29;99156.09;;;6.55;68.31
76940;BME280;65885;55.848;35.916;2023-01-19T12:47:59;99165.25;;;6.39;68.41
76940;BME280;65885;55.848;35.916;2023-01-19T12:50:31;99179.63;;;6.23;68.94
76940;BME280;65885;55.848;35.916;2023-01-19T12:53:01;99181.81;;;6.07;68.93
76940;BME280;65885;55.848;35.916;2023-01-19T12:55:32;99178.66;;;5.94;69.49
76940;BME280;65885;55.848;35.916;2023-01-19T12:58:02;99194.59;;;5.82;69.71
76940;BME280;65885;55.848;35.916;2023-01-19T13:00:33;99190.50;;;5.72;69.55
76940;BME280;65885;55.848;35.916;2023-01-19T13:05:52;99194.44;;;5.54;70.41
76940;BME280;65885;55.848;35.916;2023-01-19T13:08:24;99204.19;;;5.46;70.56
76940;BME280;65885;55.848;35.916;2023-01-19T13:11:16;99207.78;;;5.40;71.01
76940;BME280;65885;55.848;35.916;2023-01-19T13:17:23;99201.16;;;5.27;71.50
76940;BME280;65885;55.848;35.916;2023-01-19T13:20:02;99220.34;;;5.23;71.69
76940;BME280;65885;55.848;35.916;2023-01-19T13:23:14;99232.47;;;5.22;72.03
76940;BME280;65885;55.848;35.916;2023-01-19T13:25:58;99233.34;;;5.23;71.77
76940;BME280;65885;55.848;35.916;2023-01-19T13:28:37;99197.75;;;5.25;71.86